BAW838 EGLL-LDDU
Flight info
| Callsign | BAW838 |
|---|---|
| Flight time | N/A |
| Altitude | 35000 |
| Route | DET1J DET L6 DVR UL9 KONAN DCT KOK DCT SISGA DCT KOMOB DCT PITES DCT EDISA DCT KUNOD/N0443F370 DCT GEDSO DCT VEKEN DCT ALIVO DCT SIPAL SIPAL3Z |
| Aircraft | A320/M-SDE3FGIJ1KRWXY/SB1 |
Departure
| Time | N/A |
|---|---|
| Airport | London Heathrow Airport (EGLL) |
Arrival
| Time | 2026-04-28 19:10 |
|---|---|
| Airport | Dubrovnik Ruđer Bošković Airport (LDDU) |
| Time | Latitude | Longitude | Altitude | Speed | Heading |
|---|---|---|---|---|---|
| 2026-04-28 18:08 | 47.02750 | 12.02950 | 35071 ft | 501 kts | 117° |
| 2026-04-28 18:08 | 46.99671 | 12.12130 | 35082 ft | 501 kts | 118° |
| 2026-04-28 18:09 | 46.96580 | 12.21282 | 35142 ft | 501 kts | 118° |
| 2026-04-28 18:09 | 46.93496 | 12.30422 | 35150 ft | 501 kts | 118° |
| 2026-04-28 18:10 | 46.90405 | 12.39544 | 35150 ft | 501 kts | 117° |
| 2026-04-28 18:10 | 46.87306 | 12.48658 | 35142 ft | 500 kts | 118° |
| 2026-04-28 18:11 | 46.84201 | 12.57747 | 35127 ft | 500 kts | 118° |
| 2026-04-28 18:11 | 46.81089 | 12.66834 | 35107 ft | 500 kts | 117° |
| 2026-04-28 18:12 | 46.77994 | 12.75846 | 35093 ft | 501 kts | 118° |
| 2026-04-28 18:12 | 46.74854 | 12.84943 | 35091 ft | 503 kts | 118° |
| 2026-04-28 18:13 | 46.71702 | 12.94050 | 35084 ft | 504 kts | 118° |
| 2026-04-28 18:13 | 46.68538 | 13.03158 | 35088 ft | 504 kts | 118° |
| 2026-04-28 18:14 | 46.65367 | 13.12259 | 35095 ft | 504 kts | 117° |
| 2026-04-28 18:14 | 46.62181 | 13.21362 | 35500 ft | 504 kts | 118° |
| 2026-04-28 18:15 | 46.60598 | 13.25887 | 35804 ft | 501 kts | 118° |
| 2026-04-28 18:15 | 46.59038 | 13.30339 | 36148 ft | 499 kts | 118° |
| 2026-04-28 18:15 | 46.57972 | 13.33373 | 36372 ft | 498 kts | 118° |
| 2026-04-28 18:15 | 46.55457 | 13.38967 | 36786 ft | 492 kts | 134° |
| 2026-04-28 18:16 | 46.53888 | 13.41320 | 36977 ft | 489 kts | 140° |
| 2026-04-28 18:16 | 46.51394 | 13.44677 | 37067 ft | 489 kts | 140° |
| 2026-04-28 18:16 | 46.46391 | 13.51337 | 37066 ft | 488 kts | 141° |
| 2026-04-28 18:17 | 46.41386 | 13.57962 | 37060 ft | 487 kts | 141° |
| 2026-04-28 18:17 | 46.36393 | 13.64593 | 37057 ft | 486 kts | 141° |
| 2026-04-28 18:18 | 46.31413 | 13.71213 | 37065 ft | 486 kts | 141° |
| 2026-04-28 18:18 | 46.27278 | 13.76689 | 37057 ft | 485 kts | 141° |
| 2026-04-28 18:19 | 46.21450 | 13.84380 | 37066 ft | 486 kts | 141° |
| 2026-04-28 18:19 | 46.16454 | 13.90960 | 37065 ft | 486 kts | 141° |
| 2026-04-28 18:20 | 46.11453 | 13.97529 | 37071 ft | 486 kts | 141° |
| 2026-04-28 18:20 | 46.06452 | 14.04080 | 37061 ft | 485 kts | 141° |
| 2026-04-28 18:21 | 46.01454 | 14.10607 | 37077 ft | 485 kts | 141° |
| 2026-04-28 18:21 | 45.96449 | 14.17118 | 37080 ft | 485 kts | 141° |
| 2026-04-28 18:22 | 45.91454 | 14.23619 | 37075 ft | 485 kts | 141° |
| 2026-04-28 18:22 | 45.86453 | 14.30113 | 37071 ft | 485 kts | 141° |
| 2026-04-28 18:23 | 45.81442 | 14.36584 | 37074 ft | 485 kts | 141° |
| 2026-04-28 18:23 | 45.76426 | 14.43056 | 37068 ft | 485 kts | 141° |
| 2026-04-28 18:24 | 45.72249 | 14.48431 | 37068 ft | 486 kts | 141° |
| 2026-04-28 18:24 | 45.66375 | 14.55975 | 37074 ft | 486 kts | 141° |
| 2026-04-28 18:25 | 45.61345 | 14.62423 | 37059 ft | 486 kts | 141° |
| 2026-04-28 18:26 | 45.53790 | 14.72067 | 37074 ft | 485 kts | 141° |
| 2026-04-28 18:26 | 45.48462 | 14.77894 | 37074 ft | 482 kts | 148° |
| 2026-04-28 18:27 | 45.43017 | 14.83470 | 37077 ft | 483 kts | 147° |
| 2026-04-28 18:27 | 45.37571 | 14.89054 | 37061 ft | 482 kts | 147° |
| 2026-04-28 18:28 | 45.32127 | 14.94613 | 37064 ft | 482 kts | 148° |
| 2026-04-28 18:28 | 45.26681 | 15.00159 | 37074 ft | 482 kts | 148° |
| 2026-04-28 18:29 | 45.21271 | 15.05669 | 37075 ft | 482 kts | 148° |
| 2026-04-28 18:29 | 45.15817 | 15.11210 | 37048 ft | 482 kts | 147° |
| 2026-04-28 18:30 | 45.10365 | 15.16719 | 37071 ft | 481 kts | 147° |
| 2026-04-28 18:30 | 45.04909 | 15.22215 | 37077 ft | 481 kts | 147° |
| 2026-04-28 18:31 | 44.99463 | 15.27708 | 37076 ft | 481 kts | 147° |
| 2026-04-28 18:31 | 44.94011 | 15.33183 | 37075 ft | 481 kts | 147° |
| 2026-04-28 18:32 | 44.88564 | 15.38640 | 37064 ft | 480 kts | 147° |
| 2026-04-28 18:32 | 44.83115 | 15.44086 | 37059 ft | 480 kts | 147° |
| 2026-04-28 18:33 | 44.77664 | 15.49522 | 37055 ft | 480 kts | 148° |
| 2026-04-28 18:33 | 44.72203 | 15.54953 | 37060 ft | 481 kts | 148° |
| 2026-04-28 18:34 | 44.66740 | 15.60385 | 37063 ft | 480 kts | 147° |
| 2026-04-28 18:34 | 44.61291 | 15.65791 | 37085 ft | 479 kts | 148° |
| 2026-04-28 18:35 | 44.55871 | 15.71137 | 37080 ft | 479 kts | 148° |
| 2026-04-28 18:35 | 44.50420 | 15.76498 | 37065 ft | 479 kts | 148° |
| 2026-04-28 18:36 | 44.44964 | 15.81857 | 37047 ft | 479 kts | 147° |
| 2026-04-28 18:36 | 44.39516 | 15.87208 | 37049 ft | 478 kts | 147° |
| 2026-04-28 18:37 | 44.34069 | 15.92543 | 37059 ft | 478 kts | 148° |
| 2026-04-28 18:37 | 44.28615 | 15.97874 | 37055 ft | 479 kts | 148° |
| 2026-04-28 18:38 | 44.23156 | 16.03202 | 37042 ft | 478 kts | 148° |
| 2026-04-28 18:38 | 44.17703 | 16.08499 | 37047 ft | 478 kts | 148° |
| 2026-04-28 18:39 | 44.12239 | 16.13792 | 37056 ft | 478 kts | 148° |
| 2026-04-28 18:39 | 44.06780 | 16.19070 | 37068 ft | 478 kts | 148° |
| 2026-04-28 18:40 | 44.01319 | 16.24345 | 37044 ft | 478 kts | 148° |
| 2026-04-28 18:40 | 43.95857 | 16.29605 | 37066 ft | 478 kts | 148° |
| 2026-04-28 18:41 | 43.90400 | 16.34850 | 37070 ft | 477 kts | 148° |
| 2026-04-28 18:41 | 43.84937 | 16.40082 | 37092 ft | 477 kts | 148° |
| 2026-04-28 18:42 | 43.79476 | 16.45313 | 37060 ft | 477 kts | 148° |
| 2026-04-28 18:42 | 43.74012 | 16.50528 | 37070 ft | 477 kts | 148° |
| 2026-04-28 18:43 | 43.68540 | 16.55740 | 37075 ft | 477 kts | 148° |
| 2026-04-28 18:43 | 43.63081 | 16.60928 | 37075 ft | 477 kts | 148° |
| 2026-04-28 18:44 | 43.57616 | 16.66111 | 37078 ft | 477 kts | 148° |
| 2026-04-28 18:44 | 43.49409 | 16.73867 | 37086 ft | 477 kts | 148° |
| 2026-04-28 18:45 | 43.43926 | 16.79031 | 37079 ft | 477 kts | 148° |
| 2026-04-28 18:45 | 43.38445 | 16.84189 | 37077 ft | 477 kts | 148° |
| 2026-04-28 18:46 | 43.35737 | 16.86733 | 36894 ft | 478 kts | 148° |
| 2026-04-28 18:46 | 43.32962 | 16.89336 | 36618 ft | 476 kts | 148° |
| 2026-04-28 18:46 | 43.30262 | 16.91869 | 36226 ft | 477 kts | 148° |
| 2026-04-28 18:46 | 43.27508 | 16.94450 | 35413 ft | 481 kts | 148° |
| 2026-04-28 18:47 | 43.24729 | 16.97049 | 34585 ft | 485 kts | 148° |
| 2026-04-28 18:47 | 43.21924 | 16.99665 | 33649 ft | 490 kts | 148° |
| 2026-04-28 18:47 | 43.19093 | 17.02303 | 32657 ft | 494 kts | 148° |
| 2026-04-28 18:47 | 43.16221 | 17.04907 | 31711 ft | 495 kts | 152° |
| 2026-04-28 18:48 | 43.13167 | 17.06966 | 31210 ft | 484 kts | 161° |
| 2026-04-28 18:48 | 43.10002 | 17.08402 | 30660 ft | 476 kts | 169° |
| 2026-04-28 18:48 | 43.06788 | 17.09367 | 30102 ft | 470 kts | 171° |
| 2026-04-28 18:48 | 43.03607 | 17.10290 | 29497 ft | 466 kts | 171° |
| 2026-04-28 18:49 | 43.00449 | 17.11203 | 28958 ft | 460 kts | 171° |
| 2026-04-28 18:49 | 42.99395 | 17.11507 | 28766 ft | 458 kts | 171° |
| 2026-04-28 18:49 | 42.94258 | 17.12985 | 27864 ft | 450 kts | 172° |
| 2026-04-28 18:49 | 42.91212 | 17.13859 | 27300 ft | 445 kts | 171° |
| 2026-04-28 18:50 | 42.88192 | 17.14724 | 26758 ft | 441 kts | 171° |
| 2026-04-28 18:50 | 42.85200 | 17.15579 | 26216 ft | 438 kts | 171° |
| 2026-04-28 18:50 | 42.82230 | 17.16426 | 25680 ft | 435 kts | 171° |
| 2026-04-28 18:50 | 42.79282 | 17.17272 | 25159 ft | 431 kts | 171° |
| 2026-04-28 18:51 | 42.76385 | 17.18300 | 24643 ft | 431 kts | 162° |
| 2026-04-28 18:51 | 42.73682 | 17.20059 | 24147 ft | 432 kts | 150° |
| 2026-04-28 18:51 | 42.71307 | 17.22552 | 23637 ft | 432 kts | 137° |
| 2026-04-28 18:51 | 42.69371 | 17.25658 | 23103 ft | 430 kts | 124° |
| 2026-04-28 18:52 | 42.67906 | 17.29173 | 22626 ft | 426 kts | 117° |
| 2026-04-28 18:52 | 42.66540 | 17.32730 | 22164 ft | 422 kts | 118° |
| 2026-04-28 18:52 | 42.65196 | 17.36207 | 22024 ft | 406 kts | 118° |
| 2026-04-28 18:52 | 42.63922 | 17.39499 | 21875 ft | 382 kts | 118° |
| 2026-04-28 18:53 | 42.62710 | 17.42633 | 21429 ft | 369 kts | 118° |
| 2026-04-28 18:53 | 42.61523 | 17.45695 | 20814 ft | 363 kts | 118° |
| 2026-04-28 18:53 | 42.60355 | 17.48707 | 20176 ft | 359 kts | 118° |
| 2026-04-28 18:53 | 42.59201 | 17.51689 | 19536 ft | 355 kts | 118° |
| 2026-04-28 18:54 | 42.58063 | 17.54640 | 18915 ft | 351 kts | 118° |
| 2026-04-28 18:54 | 42.56956 | 17.57518 | 18678 ft | 335 kts | 118° |
| 2026-04-28 18:54 | 42.55900 | 17.60269 | 18308 ft | 325 kts | 118° |
| 2026-04-28 18:54 | 42.54863 | 17.62975 | 17773 ft | 320 kts | 118° |
| 2026-04-28 18:55 | 42.53842 | 17.65635 | 17220 ft | 316 kts | 118° |
| 2026-04-28 18:55 | 42.53159 | 17.67370 | 16861 ft | 313 kts | 119° |
| 2026-04-28 18:55 | 42.51793 | 17.70801 | 16319 ft | 302 kts | 119° |
| 2026-04-28 18:55 | 42.50808 | 17.73274 | 15920 ft | 295 kts | 119° |
| 2026-04-28 18:56 | 42.49835 | 17.75716 | 15596 ft | 293 kts | 119° |
| 2026-04-28 18:56 | 42.48875 | 17.78127 | 15336 ft | 290 kts | 119° |
| 2026-04-28 18:56 | 42.47999 | 17.80536 | 15059 ft | 288 kts | 107° |
| 2026-04-28 18:56 | 42.47814 | 17.83196 | 14783 ft | 284 kts | 79° |
| 2026-04-28 18:57 | 42.48522 | 17.85650 | 14470 ft | 279 kts | 51° |
| 2026-04-28 18:57 | 42.49943 | 17.87429 | 14156 ft | 276 kts | 32° |
| 2026-04-28 18:57 | 42.51563 | 17.88826 | 13841 ft | 275 kts | 30° |
| 2026-04-28 18:57 | 42.53203 | 17.90164 | 13520 ft | 275 kts | 29° |
| 2026-04-28 18:58 | 42.54921 | 17.91115 | 13213 ft | 269 kts | 6° |
| 2026-04-28 18:58 | 42.56747 | 17.90909 | 12881 ft | 263 kts | 337° |
| 2026-04-28 18:58 | 42.58241 | 17.89560 | 12542 ft | 258 kts | 308° |
| 2026-04-28 18:58 | 42.59266 | 17.87569 | 12185 ft | 258 kts | 300° |
| 2026-04-28 18:59 | 42.60190 | 17.85473 | 11861 ft | 259 kts | 299° |
| 2026-04-28 18:59 | 42.61101 | 17.83370 | 11548 ft | 258 kts | 299° |
| 2026-04-28 18:59 | 42.62008 | 17.81270 | 11255 ft | 258 kts | 299° |
| 2026-04-28 18:59 | 42.62914 | 17.79173 | 10966 ft | 257 kts | 299° |
| 2026-04-28 19:00 | 42.63824 | 17.77089 | 10678 ft | 256 kts | 299° |
| 2026-04-28 19:00 | 42.64736 | 17.75012 | 10384 ft | 256 kts | 299° |
| 2026-04-28 19:00 | 42.65641 | 17.72938 | 10125 ft | 254 kts | 299° |
| 2026-04-28 19:00 | 42.66532 | 17.70876 | 9864 ft | 252 kts | 299° |
| 2026-04-28 19:01 | 42.67456 | 17.68863 | 9564 ft | 251 kts | 309° |
| 2026-04-28 19:01 | 42.68321 | 17.67857 | 9472 ft | 247 kts | 330° |
| 2026-04-28 19:01 | 42.70512 | 17.67329 | 9165 ft | 243 kts | 11° |
| 2026-04-28 19:01 | 42.72065 | 17.68218 | 8854 ft | 244 kts | 34° |
| 2026-04-28 19:02 | 42.73222 | 17.69878 | 8640 ft | 244 kts | 61° |
| 2026-04-28 19:02 | 42.73726 | 17.72070 | 8569 ft | 245 kts | 88° |
| 2026-04-28 19:02 | 42.73568 | 17.74371 | 8349 ft | 245 kts | 99° |
| 2026-04-28 19:02 | 42.73386 | 17.75880 | 8138 ft | 244 kts | 101° |
| 2026-04-28 19:03 | 42.73099 | 17.78157 | 7849 ft | 244 kts | 101° |
| 2026-04-28 19:03 | 42.72808 | 17.80429 | 7550 ft | 244 kts | 101° |
| 2026-04-28 19:03 | 42.72519 | 17.82698 | 7250 ft | 244 kts | 101° |
| 2026-04-28 19:03 | 42.72233 | 17.84970 | 6948 ft | 244 kts | 101° |
| 2026-04-28 19:04 | 42.71509 | 17.87834 | 6539 ft | 242 kts | 120° |
| 2026-04-28 19:04 | 42.70968 | 17.89196 | 6314 ft | 244 kts | 119° |
| 2026-04-28 19:04 | 42.70163 | 17.91232 | 5938 ft | 246 kts | 119° |
| 2026-04-28 19:04 | 42.69349 | 17.93291 | 5588 ft | 248 kts | 119° |
| 2026-04-28 19:05 | 42.68538 | 17.95358 | 5250 ft | 248 kts | 119° |
| 2026-04-28 19:05 | 42.67734 | 17.97408 | 4926 ft | 249 kts | 119° |
| 2026-04-28 19:05 | 42.66921 | 17.99481 | 4588 ft | 241 kts | 119° |
| 2026-04-28 19:05 | 42.66158 | 18.01424 | 4281 ft | 232 kts | 119° |
| 2026-04-28 19:06 | 42.65414 | 18.03317 | 3975 ft | 223 kts | 119° |
| 2026-04-28 19:06 | 42.64699 | 18.05135 | 3698 ft | 214 kts | 119° |
| 2026-04-28 19:06 | 42.64015 | 18.06873 | 3452 ft | 203 kts | 119° |
| 2026-04-28 19:06 | 42.63356 | 18.08548 | 3176 ft | 194 kts | 118° |
| 2026-04-28 19:07 | 42.62750 | 18.10085 | 2931 ft | 181 kts | 119° |
| 2026-04-28 19:07 | 42.62172 | 18.11550 | 2728 ft | 164 kts | 118° |
| 2026-04-28 19:07 | 42.61656 | 18.12859 | 2501 ft | 152 kts | 118° |
| 2026-04-28 19:07 | 42.61172 | 18.14087 | 2312 ft | 148 kts | 118° |
| 2026-04-28 19:08 | 42.60684 | 18.15321 | 2111 ft | 146 kts | 118° |
| 2026-04-28 19:08 | 42.60215 | 18.16509 | 1919 ft | 144 kts | 117° |
| 2026-04-28 19:08 | 42.59742 | 18.17706 | 1734 ft | 144 kts | 118° |
| 2026-04-28 19:08 | 42.59270 | 18.18902 | 1538 ft | 144 kts | 118° |
| 2026-04-28 19:09 | 42.58797 | 18.20099 | 1348 ft | 144 kts | 118° |
| 2026-04-28 19:09 | 42.58325 | 18.21291 | 1158 ft | 143 kts | 118° |
| 2026-04-28 19:09 | 42.57858 | 18.22470 | 960 ft | 141 kts | 117° |
| 2026-04-28 19:09 | 42.57395 | 18.23634 | 766 ft | 140 kts | 117° |
| 2026-04-28 19:10 | 42.56937 | 18.24797 | 599 ft | 139 kts | 117° |
| 2026-04-28 19:10 | 42.56513 | 18.25877 | 536 ft | 111 kts | 118° |
| 2026-04-28 19:10 | 42.56229 | 18.26592 | 534 ft | 61 kts | 118° |
| 2026-04-28 19:10 | 42.56067 | 18.27002 | 534 ft | 45 kts | 118° |
| 2026-04-28 19:11 | 42.55947 | 18.27293 | 532 ft | 21 kts | 128° |
| 2026-04-28 19:11 | 42.55846 | 18.27334 | 533 ft | 15 kts | 173° |
| 2026-04-28 19:11 | 42.55770 | 18.27298 | 534 ft | 13 kts | 266° |
| 2026-04-28 19:11 | 42.55799 | 18.27205 | 534 ft | 10 kts | 297° |
| 2026-04-28 19:12 | 42.55836 | 18.27110 | 534 ft | 12 kts | 298° |
| 2026-04-28 19:12 | 42.55880 | 18.26999 | 534 ft | 14 kts | 298° |
| 2026-04-28 19:12 | 42.55931 | 18.26870 | 534 ft | 17 kts | 298° |
| 2026-04-28 19:12 | 42.55981 | 18.26743 | 534 ft | 15 kts | 298° |
| 2026-04-28 19:13 | 42.56035 | 18.26608 | 534 ft | 17 kts | 298° |
| 2026-04-28 19:13 | 42.56093 | 18.26463 | 534 ft | 13 kts | 298° |
| 2026-04-28 19:13 | 42.56090 | 18.26430 | 534 ft | 3 kts | 215° |
| 2026-04-28 19:13 | 42.56065 | 18.26412 | 534 ft | 5 kts | 207° |
| 2026-04-28 19:14 | 42.56049 | 18.26400 | 534 ft | 0 kts | 208° |